Time;durP1;ratioP1;P1;durP2;ratioP2;P2;SDS_P1;SDS_P2;PMS_P1;PMS_P2;Temp;Humidity;BMP_temperature;BMP_pressure;BME280_temperature;BME280_humidity;BME280_pressure;Samples;Min_cycle;Max_cycle;Signal;HPM_P1;HPM_P2
2024/03/04 00:00:57;;;;;;;6.32;4.22;;;9.30;99.90;;;;;;5051684;28;20351;-76
2024/03/04 00:03:23;;;;;;;8.15;4.93;;;9.20;99.90;;;;;;5052463;28;20151;-76
2024/03/04 00:05:49;;;;;;;8.73;5.40;;;9.20;99.90;;;;;;5051814;28;20032;-75
2024/03/04 00:08:15;;;;;;;9.40;5.18;;;9.20;99.90;;;;;;5051060;28;20035;-76
2024/03/04 00:10:41;;;;;;;7.38;4.57;;;9.20;99.90;;;;;;5051271;28;20033;-76
2024/03/04 00:13:08;;;;;;;7.68;4.43;;;9.20;99.90;;;;;;5050336;28;20037;-76
2024/03/04 00:15:33;;;;;;;9.30;5.43;;;9.20;99.90;;;;;;5050817;28;20035;-76
2024/03/04 00:17:59;;;;;;;8.07;5.03;;;9.20;99.90;;;;;;5050229;28;20037;-75
2024/03/04 00:20:25;;;;;;;11.43;5.50;;;9.20;99.90;;;;;;5052107;28;20029;-75
2024/03/04 00:22:50;;;;;;;12.13;6.38;;;9.10;99.90;;;;;;5050279;28;20112;-75
2024/03/04 00:25:16;;;;;;;10.98;6.28;;;9.20;99.90;;;;;;5050806;28;20144;-75
2024/03/04 00:27:47;;;;;;;11.00;5.57;;;9.10;99.90;;;;;;5051662;28;20033;-75
2024/03/04 00:30:14;;;;;;;10.32;6.13;;;9.10;99.90;;;;;;5052234;28;20025;-76
2024/03/04 00:32:39;;;;;;;10.85;6.13;;;9.10;99.90;;;;;;5054538;28;20029;-75
2024/03/04 00:35:06;;;;;;;10.65;5.72;;;9.10;99.90;;;;;;5053774;28;20025;-76
2024/03/04 00:37:32;;;;;;;12.15;6.72;;;9.10;99.90;;;;;;5055819;28;20024;-75
2024/03/04 00:39:58;;;;;;;13.05;6.03;;;9.10;99.90;;;;;;5054769;28;20029;-74
2024/03/04 00:42:25;;;;;;;12.25;6.40;;;9.10;99.90;;;;;;5054149;28;20029;-75
2024/03/04 00:44:51;;;;;;;11.52;6.60;;;9.10;99.90;;;;;;5053216;28;20095;-74
2024/03/04 00:47:17;;;;;;;12.55;6.85;;;9.10;99.90;;;;;;5054419;28;20134;-75
2024/03/04 00:49:45;;;;;;;13.20;6.85;;;9.10;99.90;;;;;;5054190;28;20517;-75
2024/03/04 00:52:12;;;;;;;11.05;6.47;;;9.10;99.90;;;;;;5053583;28;20053;-75
2024/03/04 00:54:37;;;;;;;13.07;6.95;;;9.10;99.90;;;;;;5053972;28;20021;-75
2024/03/04 00:57:04;;;;;;;15.52;7.45;;;9.10;99.90;;;;;;5054172;28;20028;-75
2024/03/04 00:59:30;;;;;;;13.13;7.20;;;9.10;99.90;;;;;;5053952;28;20033;-75
2024/03/04 01:01:57;;;;;;;13.45;6.78;;;9.10;99.90;;;;;;5053350;28;20484;-75
2024/03/04 01:04:22;;;;;;;12.30;7.35;;;9.00;99.90;;;;;;5053868;28;20492;-75
2024/03/04 01:06:52;;;;;;;12.70;7.13;;;9.10;99.90;;;;;;5053752;28;20021;-75
2024/03/04 01:09:20;;;;;;;15.90;7.50;;;9.00;99.90;;;;;;5054929;28;20064;-75
2024/03/04 01:11:46;;;;;;;16.08;7.85;;;9.00;99.90;;;;;;5054947;28;20024;-74
2024/03/04 01:14:12;;;;;;;14.65;8.02;;;9.00;99.90;;;;;;5053011;28;20532;-75
2024/03/04 01:16:41;;;;;;;15.02;7.90;;;9.00;99.90;;;;;;5054747;28;20509;-75
2024/03/04 01:19:07;;;;;;;14.02;7.47;;;9.00;99.90;;;;;;5054132;28;20037;-76
2024/03/04 01:21:32;;;;;;;19.10;8.35;;;9.00;99.90;;;;;;5053614;28;20558;-75
2024/03/04 01:23:58;;;;;;;13.40;7.40;;;9.00;99.90;;;;;;5054276;28;20025;-75
2024/03/04 01:26:23;;;;;;;14.18;7.90;;;9.00;99.90;;;;;;5054868;28;20150;-76
2024/03/04 01:28:49;;;;;;;14.43;7.80;;;9.00;99.90;;;;;;5053614;28;20470;-76
2024/03/04 01:31:18;;;;;;;18.45;8.07;;;9.00;99.90;;;;;;5052930;28;20112;-76
2024/03/04 01:33:47;;;;;;;15.90;7.88;;;9.00;99.90;;;;;;5054797;28;20025;-75
2024/03/04 01:36:12;;;;;;;16.48;7.93;;;9.00;99.90;;;;;;5054038;28;20021;-75
2024/03/04 01:38:38;;;;;;;14.18;7.95;;;9.00;99.90;;;;;;5053457;28;20040;-76
2024/03/04 01:41:04;;;;;;;14.27;7.50;;;8.90;99.90;;;;;;5052648;28;20029;-75
2024/03/04 01:43:29;;;;;;;16.17;7.78;;;8.90;99.90;;;;;;5054663;28;20033;-76
2024/03/04 01:45:55;;;;;;;15.90;7.90;;;9.00;99.90;;;;;;5053403;28;20056;-75
2024/03/04 01:48:22;;;;;;;14.45;7.50;;;9.00;99.90;;;;;;5054237;28;20115;-76
2024/03/04 01:50:49;;;;;;;14.85;7.85;;;9.00;99.90;;;;;;5053177;28;20021;-76
2024/03/04 01:53:15;;;;;;;13.93;7.55;;;9.00;99.90;;;;;;5053648;28;20021;-75
2024/03/04 01:55:53;;;;;;;14.15;7.47;;;9.00;99.90;;;;;;5052987;28;20450;-76
2024/03/04 01:58:20;;;;;;;15.35;7.80;;;9.00;99.90;;;;;;5052914;28;20069;-75
2024/03/04 02:00:48;;;;;;;13.88;8.10;;;8.90;99.90;;;;;;5054216;28;20473;-75
2024/03/04 02:03:16;;;;;;;15.15;7.70;;;9.00;99.90;;;;;;5053401;28;20025;-75
2024/03/04 02:05:44;;;;;;;19.10;8.40;;;9.00;99.90;;;;;;5052776;28;20037;-75
2024/03/04 02:08:12;;;;;;;18.80;8.98;;;8.90;99.90;;;;;;5053462;28;20040;-76
2024/03/04 02:10:37;;;;;;;17.00;8.82;;;9.00;99.90;;;;;;5053874;28;20017;-75
2024/03/04 02:13:05;;;;;;;17.25;7.90;;;9.00;99.90;;;;;;5052838;28;20040;-76
2024/03/04 02:15:37;;;;;;;18.05;9.23;;;9.00;99.90;;;;;;5053383;28;20068;-75
2024/03/04 02:18:05;;;;;;;19.85;8.70;;;8.90;99.90;;;;;;5051954;28;20481;-75
2024/03/04 02:20:37;;;;;;;16.77;8.27;;;9.00;99.90;;;;;;5052429;28;20021;-75
2024/03/04 02:23:03;;;;;;;21.13;9.48;;;9.00;99.90;;;;;;5053071;28;20108;-75
2024/03/04 02:25:51;;;;;;;18.65;8.93;;;9.00;99.90;;;;;;5052357;28;20033;-75
2024/03/04 02:28:17;;;;;;;19.10;8.70;;;9.00;99.90;;;;;;5052871;28;20033;-75
2024/03/04 02:30:43;;;;;;;17.45;8.68;;;9.00;99.90;;;;;;5052237;28;20385;-75
2024/03/04 02:33:10;;;;;;;17.90;9.85;;;9.00;99.90;;;;;;5051674;28;20494;-75
2024/03/04 02:35:35;;;;;;;21.25;9.57;;;9.00;99.90;;;;;;5053355;28;20066;-75
2024/03/04 02:38:05;;;;;;;18.85;9.55;;;9.00;99.90;;;;;;5053034;28;20036;-74
2024/03/04 02:40:31;;;;;;;18.52;9.50;;;9.00;99.90;;;;;;5053665;28;20465;-75
2024/03/04 02:42:57;;;;;;;16.35;8.77;;;9.00;99.90;;;;;;5052279;28;20036;-74
2024/03/04 02:45:22;;;;;;;21.17;9.85;;;9.00;99.90;;;;;;5051674;28;20487;-75
2024/03/04 02:47:48;;;;;;;18.48;9.02;;;9.10;99.90;;;;;;5051852;28;20033;-76
2024/03/04 02:50:14;;;;;;;18.40;9.45;;;9.00;99.90;;;;;;5052830;28;20025;-75
2024/03/04 02:52:40;;;;;;;21.65;9.55;;;9.10;99.90;;;;;;5051867;28;20056;-76
2024/03/04 02:55:06;;;;;;;19.73;9.65;;;9.10;99.90;;;;;;5051525;28;20041;-75
2024/03/04 02:57:31;;;;;;;17.80;9.32;;;9.10;99.90;;;;;;5052020;28;20484;-76
2024/03/04 02:59:57;;;;;;;20.98;9.88;;;9.10;99.90;;;;;;5051162;28;20025;-75
2024/03/04 03:02:23;;;;;;;20.73;10.27;;;9.10;99.90;;;;;;5051543;28;20021;-76
2024/03/04 03:04:48;;;;;;;17.50;9.23;;;9.10;99.90;;;;;;5051810;28;20029;-76
2024/03/04 03:07:14;;;;;;;20.73;10.40;;;9.10;99.90;;;;;;5052474;28;20021;-76
2024/03/04 03:09:39;;;;;;;22.00;9.93;;;9.10;99.90;;;;;;5053088;28;20083;-76
2024/03/04 03:12:05;;;;;;;19.63;9.95;;;9.10;99.90;;;;;;5052514;28;20477;-76
2024/03/04 03:14:35;;;;;;;23.58;11.02;;;9.10;99.90;;;;;;5053322;28;20025;-76
2024/03/04 03:17:00;;;;;;;21.83;10.35;;;9.10;99.90;;;;;;5052570;28;20032;-76
2024/03/04 03:19:27;;;;;;;22.67;10.10;;;9.10;99.90;;;;;;5053123;28;20025;-76
2024/03/04 03:21:53;;;;;;;19.60;10.00;;;9.10;99.90;;;;;;5052777;28;20021;-76
2024/03/04 03:24:23;;;;;;;24.77;11.57;;;9.10;99.90;;;;;;5052363;28;20035;-76
2024/03/04 03:26:49;;;;;;;20.98;10.18;;;9.10;99.90;;;;;;5051624;28;20029;-76
2024/03/04 03:29:15;;;;;;;23.30;10.20;;;9.10;99.90;;;;;;5050661;28;20469;-76
2024/03/04 03:31:41;;;;;;;22.15;10.50;;;9.10;99.90;;;;;;5051159;28;20029;-76
2024/03/04 03:34:07;;;;;;;25.42;10.90;;;9.10;99.90;;;;;;5050818;28;20029;-76
2024/03/04 03:36:32;;;;;;;24.65;11.15;;;9.10;99.90;;;;;;5052459;28;20029;-75
2024/03/04 03:38:58;;;;;;;27.35;11.60;;;9.10;99.90;;;;;;5052169;28;20029;-74
2024/03/04 03:41:24;;;;;;;25.17;11.15;;;9.10;99.90;;;;;;5052317;28;20058;-75
2024/03/04 03:43:49;;;;;;;23.80;10.95;;;9.10;99.90;;;;;;5051101;28;20462;-75
2024/03/04 03:46:15;;;;;;;25.35;11.85;;;9.10;99.90;;;;;;5050102;28;20135;-75
2024/03/04 03:48:44;;;;;;;28.83;10.38;;;9.10;99.90;;;;;;5051004;28;20040;-75
2024/03/04 03:51:09;;;;;;;23.02;11.75;;;9.10;99.90;;;;;;5051826;28;20057;-75
2024/03/04 03:53:35;;;;;;;23.17;11.55;;;9.20;99.90;;;;;;5050980;28;20106;-75
2024/03/04 03:56:05;;;;;;;23.65;11.30;;;9.10;99.90;;;;;;5050584;28;20032;-74
2024/03/04 03:58:30;;;;;;;22.65;10.90;;;9.10;99.90;;;;;;5051771;28;20483;-76
2024/03/04 04:00:56;;;;;;;26.73;12.35;;;9.10;99.90;;;;;;5051003;28;20167;-76
2024/03/04 04:03:22;;;;;;;23.45;10.48;;;9.10;99.90;;;;;;5051519;28;20036;-75
2024/03/04 04:05:48;;;;;;;24.10;11.43;;;9.10;99.90;;;;;;5054578;28;20025;-75
2024/03/04 04:08:13;;;;;;;24.13;11.25;;;9.10;99.90;;;;;;5054419;28;20393;-75
2024/03/04 04:10:39;;;;;;;25.30;11.40;;;9.10;99.90;;;;;;5054888;28;20032;-76
2024/03/04 04:13:06;;;;;;;24.40;11.60;;;9.10;99.90;;;;;;5055484;28;20040;-75
2024/03/04 04:15:32;;;;;;;26.75;11.63;;;9.10;99.90;;;;;;5055124;28;20033;-76
2024/03/04 04:17:57;;;;;;;26.92;11.50;;;9.10;99.90;;;;;;5055182;28;20029;-76
2024/03/04 04:20:24;;;;;;;22.42;11.25;;;9.10;99.90;;;;;;5054549;28;20116;-76
2024/03/04 04:22:50;;;;;;;27.33;13.32;;;9.10;99.90;;;;;;5055140;28;20024;-76
2024/03/04 04:25:16;;;;;;;28.58;11.70;;;9.10;99.90;;;;;;5054370;28;20462;-76
2024/03/04 04:27:42;;;;;;;27.25;13.15;;;9.10;99.90;;;;;;5056060;28;20036;-76
2024/03/04 04:30:09;;;;;;;29.60;13.25;;;9.10;99.90;;;;;;5055838;28;20033;-76
2024/03/04 04:32:35;;;;;;;27.95;12.13;;;9.10;99.90;;;;;;5055608;28;20527;-76
2024/03/04 04:35:03;;;;;;;31.38;13.27;;;9.10;99.90;;;;;;5055033;28;20025;-77
2024/03/04 04:37:29;;;;;;;29.05;12.63;;;9.10;99.90;;;;;;5055115;28;20513;-76
2024/03/04 04:39:54;;;;;;;27.85;12.50;;;9.10;99.90;;;;;;5055177;28;20029;-77
2024/03/04 04:42:22;;;;;;;31.27;12.40;;;9.10;99.90;;;;;;5053868;28;20474;-76
2024/03/04 04:44:48;;;;;;;31.85;14.35;;;9.20;99.90;;;;;;5055653;28;20049;-76
2024/03/04 04:47:13;;;;;;;29.60;12.98;;;9.10;99.90;;;;;;5054036;28;20090;-77
2024/03/04 04:49:39;;;;;;;29.60;12.85;;;9.10;99.90;;;;;;5055655;28;20568;-77
2024/03/04 04:52:05;;;;;;;28.73;12.93;;;9.10;99.90;;;;;;5053879;28;20033;-76
2024/03/04 04:54:30;;;;;;;26.27;12.05;;;9.10;99.90;;;;;;5055829;28;20029;-76
2024/03/04 04:56:56;;;;;;;29.95;13.00;;;9.10;99.90;;;;;;5055478;28;20055;-75
2024/03/04 04:59:22;;;;;;;31.30;12.50;;;9.10;99.90;;;;;;5054757;28;20029;-76
2024/03/04 05:01:47;;;;;;;29.30;13.43;;;9.10;99.90;;;;;;5055213;28;20493;-75
2024/03/04 05:04:14;;;;;;;31.15;12.98;;;9.10;99.90;;;;;;5053498;28;20029;-76
2024/03/04 05:06:40;;;;;;;32.17;13.43;;;9.10;99.90;;;;;;5055312;28;20032;-76
2024/03/04 05:09:06;;;;;;;28.80;12.85;;;9.10;99.90;;;;;;5053321;28;20029;-75
2024/03/04 05:11:32;;;;;;;29.23;13.02;;;9.10;99.90;;;;;;5053828;28;20377;-76
2024/03/04 05:13:59;;;;;;;32.63;13.63;;;9.10;99.90;;;;;;5055102;28;20057;-76
2024/03/04 05:16:25;;;;;;;28.92;13.23;;;9.10;99.90;;;;;;5052797;28;20504;-76
2024/03/04 05:18:51;;;;;;;33.45;13.32;;;9.10;99.90;;;;;;5053787;28;20067;-76
2024/03/04 05:21:16;;;;;;;27.90;12.68;;;9.10;99.90;;;;;;5053250;28;20032;-76
2024/03/04 05:23:42;;;;;;;30.25;13.43;;;9.20;99.90;;;;;;5053691;28;20133;-76
2024/03/04 05:26:07;;;;;;;32.88;12.90;;;9.20;99.90;;;;;;5053048;28;20480;-76
2024/03/04 05:28:33;;;;;;;29.15;12.18;;;9.20;99.90;;;;;;5054936;28;20040;-76
2024/03/04 05:30:58;;;;;;;29.95;12.57;;;9.20;99.90;;;;;;5055219;28;20113;-76
2024/03/04 05:33:24;;;;;;;29.52;13.35;;;9.20;99.90;;;;;;5054531;28;20405;-76
2024/03/04 05:35:50;;;;;;;34.20;13.70;;;9.20;99.90;;;;;;5053452;28;20017;-76
2024/03/04 05:38:15;;;;;;;34.17;13.10;;;9.20;99.90;;;;;;5054115;28;20039;-76
2024/03/04 05:40:41;;;;;;;34.75;13.35;;;9.20;99.90;;;;;;5054876;28;20029;-76
2024/03/04 05:43:07;;;;;;;29.10;12.38;;;9.20;99.90;;;;;;5054079;28;20037;-75
2024/03/04 05:45:33;;;;;;;32.42;13.50;;;9.20;99.90;;;;;;5052910;28;20106;-75
2024/03/04 05:47:59;;;;;;;30.23;12.15;;;9.10;99.90;;;;;;5053037;28;20536;-75
2024/03/04 05:50:24;;;;;;;28.05;12.48;;;9.10;99.90;;;;;;5053837;28;20033;-76
2024/03/04 05:52:50;;;;;;;30.33;12.07;;;9.20;99.90;;;;;;5053089;28;20481;-76
2024/03/04 05:55:19;;;;;;;27.45;12.50;;;9.20;99.90;;;;;;5052303;28;20025;-75
2024/03/04 05:57:45;;;;;;;27.08;12.75;;;9.20;99.90;;;;;;5054068;28;20078;-76
2024/03/04 06:00:12;;;;;;;30.95;13.00;;;9.20;99.90;;;;;;5052295;28;20462;-75
2024/03/04 06:02:42;;;;;;;31.40;13.18;;;9.20;99.90;;;;;;5054068;28;20029;-76
2024/03/04 06:05:08;;;;;;;30.77;12.63;;;9.20;99.90;;;;;;5052300;28;20061;-74
2024/03/04 06:07:34;;;;;;;33.03;13.48;;;9.20;99.90;;;;;;5052663;28;20037;-76
2024/03/04 06:10:00;;;;;;;26.52;12.38;;;9.20;99.90;;;;;;5054379;28;20039;-76
2024/03/04 06:12:25;;;;;;;30.42;12.70;;;9.20;99.90;;;;;;5053161;28;20028;-75
2024/03/04 06:14:51;;;;;;;34.78;13.30;;;9.10;99.90;;;;;;5053644;28;20021;-75
2024/03/04 06:17:16;;;;;;;38.47;14.32;;;9.10;99.90;;;;;;5052110;28;20025;-76
2024/03/04 06:19:42;;;;;;;30.30;13.07;;;9.20;99.90;;;;;;5053909;28;20025;-76
2024/03/04 06:22:08;;;;;;;29.85;12.63;;;9.10;99.90;;;;;;5053432;28;20421;-74
2024/03/04 06:24:34;;;;;;;31.65;13.40;;;9.10;99.90;;;;;;5052745;28;20029;-75
2024/03/04 06:27:03;;;;;;;29.20;12.77;;;9.10;99.90;;;;;;5052229;28;20462;-76
2024/03/04 06:29:35;;;;;;;30.48;12.88;;;9.10;99.90;;;;;;5052841;28;20086;-74
2024/03/04 06:32:04;;;;;;;;;;;9.10;99.90;;;;;;5051874;28;20520;-75
2024/03/04 06:34:31;;;;;;;29.08;12.75;;;9.20;99.90;;;;;;5051713;28;20031;-74
2024/03/04 06:36:57;;;;;;;29.20;12.68;;;9.10;99.90;;;;;;5052326;28;20025;-75
2024/03/04 06:39:23;;;;;;;28.15;13.05;;;9.10;99.90;;;;;;5050379;28;20029;-74
2024/03/04 06:41:49;;;;;;;30.63;12.57;;;9.10;99.90;;;;;;5050902;28;20086;-74
2024/03/04 06:44:15;;;;;;;29.90;12.43;;;9.10;99.90;;;;;;5050945;28;20539;-74
2024/03/04 06:46:41;;;;;;;31.25;12.98;;;9.10;99.90;;;;;;5052946;28;20045;-75
2024/03/04 06:49:07;;;;;;;32.47;13.48;;;9.20;99.90;;;;;;5051734;28;20039;-75
2024/03/04 06:51:35;;;;;;;28.80;13.27;;;9.10;99.90;;;;;;5052446;28;20021;-75
2024/03/04 06:54:09;;;;;;;30.15;13.73;;;9.10;99.90;;;;;;5052023;28;20036;-75
2024/03/04 06:56:36;;;;;;;36.30;13.93;;;9.20;99.90;;;;;;5050184;28;20024;-75
2024/03/04 06:59:02;;;;;;;28.92;13.63;;;9.20;99.90;;;;;;5051030;28;20508;-76
2024/03/04 07:01:27;;;;;;;33.65;14.00;;;9.20;99.90;;;;;;5052908;28;20417;-75
2024/03/04 07:03:54;;;;;;;27.88;12.73;;;9.10;99.90;;;;;;5053427;28;20033;-75
2024/03/04 07:06:21;;;;;;;30.75;12.45;;;9.20;99.90;;;;;;5050974;28;20136;-75
2024/03/04 07:08:46;;;;;;;33.38;13.70;;;9.20;99.90;;;;;;5051644;28;20037;-75
2024/03/04 07:11:13;;;;;;;34.80;12.90;;;9.10;99.90;;;;;;5049477;28;20063;-74
2024/03/04 07:13:40;;;;;;;28.48;12.57;;;9.10;99.90;;;;;;5051428;28;20029;-75
2024/03/04 07:16:07;;;;;;;33.40;13.48;;;9.20;99.90;;;;;;5052626;28;20025;-76
2024/03/04 07:18:36;;;;;;;32.60;13.80;;;9.20;99.90;;;;;;5051942;28;20021;-75
2024/03/04 07:21:02;;;;;;;25.40;12.13;;;9.20;99.90;;;;;;5051049;28;20028;-74
2024/03/04 07:23:27;;;;;;;27.00;12.95;;;9.20;99.90;;;;;;5051244;28;20029;-73
2024/03/04 07:25:54;;;;;;;29.73;11.90;;;9.20;99.90;;;;;;5051929;28;20025;-75
2024/03/04 07:28:20;;;;;;;31.95;12.82;;;9.20;99.90;;;;;;5051509;28;20075;-75
2024/03/04 07:30:46;;;;;;;36.80;13.40;;;9.10;99.90;;;;;;5051008;28;20025;-75
2024/03/04 07:33:13;;;;;;;30.42;13.32;;;9.20;99.90;;;;;;5051670;28;20022;-74
2024/03/04 07:35:40;;;;;;;30.92;13.35;;;9.20;99.90;;;;;;5051095;28;20104;-76
2024/03/04 07:38:05;;;;;;;29.35;12.80;;;9.20;99.90;;;;;;5052061;28;20025;-75
2024/03/04 07:40:31;;;;;;;28.55;13.02;;;9.20;99.90;;;;;;5051240;28;20029;-75
2024/03/04 07:42:57;;;;;;;33.58;13.20;;;9.20;99.90;;;;;;5052074;28;20086;-76
2024/03/04 07:45:23;;;;;;;26.70;11.80;;;9.20;99.90;;;;;;5050186;28;20060;-75
2024/03/04 07:47:49;;;;;;;30.30;13.38;;;9.30;99.90;;;;;;5050663;28;20029;-74
2024/03/04 07:50:14;;;;;;;29.05;12.70;;;9.20;99.90;;;;;;5050003;28;20028;-74
2024/03/04 07:52:40;;;;;;;27.50;12.68;;;9.20;99.90;;;;;;5050900;28;20032;-75
2024/03/04 07:55:11;;;;;;;30.10;13.20;;;9.20;99.90;;;;;;5051951;28;20428;-76
2024/03/04 07:57:37;;;;;;;29.92;13.25;;;9.20;99.90;;;;;;5052223;28;20037;-75
2024/03/04 08:00:03;;;;;;;30.20;14.30;;;9.20;99.90;;;;;;5050652;28;20091;-75
2024/03/04 08:02:29;;;;;;;30.63;12.93;;;9.20;99.90;;;;;;5050236;28;20055;-76
2024/03/04 08:04:55;;;;;;;29.30;13.05;;;9.20;99.90;;;;;;5050747;28;20029;-75
2024/03/04 08:07:20;;;;;;;26.33;11.77;;;9.20;99.90;;;;;;5049798;28;20367;-75
2024/03/04 08:09:46;;;;;;;28.63;12.02;;;9.20;99.90;;;;;;5051772;28;20049;-74
2024/03/04 08:12:12;;;;;;;30.73;12.68;;;9.20;99.90;;;;;;5049932;28;20022;-74
2024/03/04 08:14:40;;;;;;;32.28;12.98;;;9.20;99.90;;;;;;5051628;28;20032;-75
2024/03/04 08:17:05;;;;;;;29.10;13.35;;;9.30;99.90;;;;;;5050271;28;20039;-75
2024/03/04 08:19:31;;;;;;;26.95;11.93;;;9.30;99.90;;;;;;5051095;28;20167;-74
2024/03/04 08:21:57;;;;;;;30.20;12.52;;;9.30;99.90;;;;;;5051644;28;20031;-75
2024/03/04 08:24:22;;;;;;;27.65;12.95;;;9.30;99.90;;;;;;5050647;28;20096;-74
2024/03/04 08:26:48;;;;;;;32.38;12.25;;;9.30;99.90;;;;;;5050404;28;20500;-74
2024/03/04 08:29:13;;;;;;;32.92;14.98;;;9.40;99.90;;;;;;5050853;28;20061;-74
2024/03/04 08:31:39;;;;;;;30.33;13.05;;;9.30;99.90;;;;;;5050327;28;20032;-75
2024/03/04 08:34:05;;;;;;;32.40;12.85;;;9.40;99.90;;;;;;5050224;28;20513;-74
2024/03/04 08:36:31;;;;;;;26.55;12.18;;;9.40;99.90;;;;;;5049649;28;20024;-75
2024/03/04 08:38:57;;;;;;;29.90;12.30;;;9.40;99.90;;;;;;5051265;28;20478;-75
2024/03/04 08:41:24;;;;;;;27.60;12.48;;;9.50;99.90;;;;;;5049693;28;20028;-75
2024/03/04 08:43:50;;;;;;;35.13;14.38;;;9.50;99.90;;;;;;5050256;28;20082;-75
2024/03/04 08:46:16;;;;;;;25.40;12.15;;;9.60;99.90;;;;;;5051126;28;20110;-75
2024/03/04 08:48:42;;;;;;;32.42;13.50;;;9.50;99.90;;;;;;5050435;28;20076;-77
2024/03/04 08:51:08;;;;;;;30.48;13.35;;;9.50;99.90;;;;;;5051422;28;20093;-75
2024/03/04 08:53:34;;;;;;;30.85;13.55;;;9.60;99.90;;;;;;5054538;28;20025;-74
2024/03/04 08:56:00;;;;;;;34.08;13.65;;;9.50;99.90;;;;;;5053798;28;20021;-76
2024/03/04 08:58:26;;;;;;;30.45;12.93;;;9.60;99.90;;;;;;5052878;28;20021;-74
2024/03/04 09:00:51;;;;;;;28.63;12.57;;;9.60;99.90;;;;;;5053435;28;20116;-75
2024/03/04 09:03:17;;;;;;;28.60;12.45;;;9.60;99.90;;;;;;5052992;28;20037;-75
2024/03/04 09:05:44;;;;;;;29.88;13.93;;;9.70;99.90;;;;;;5053701;28;20466;-74
2024/03/04 09:08:11;;;;;;;27.30;12.23;;;9.60;99.90;;;;;;5051427;28;20466;-73
2024/03/04 09:10:37;;;;;;;33.45;14.05;;;9.60;99.90;;;;;;5040206;28;20075;-74
2024/03/04 09:13:03;;;;;;;28.33;13.43;;;9.70;99.90;;;;;;5043884;28;20374;-76
2024/03/04 09:15:29;;;;;;;36.88;14.65;;;9.70;99.90;;;;;;5048621;28;20397;-75
2024/03/04 09:17:55;;;;;;;30.08;13.60;;;9.70;99.90;;;;;;5052898;28;20033;-74
2024/03/04 09:20:21;;;;;;;27.55;12.65;;;9.70;99.90;;;;;;5069142;28;20074;-75
2024/03/04 09:22:46;;;;;;;26.70;12.65;;;9.80;99.90;;;;;;5053427;28;20082;-75
2024/03/04 09:25:12;;;;;;;28.17;13.00;;;9.70;99.90;;;;;;5053109;28;20028;-75
2024/03/04 09:27:39;;;;;;;28.23;12.80;;;9.70;99.90;;;;;;5052577;28;20025;-76
2024/03/04 09:30:08;;;;;;;27.52;12.48;;;9.80;99.90;;;;;;5054308;28;20052;-76
2024/03/04 09:32:33;;;;;;;29.30;12.63;;;9.70;99.90;;;;;;5053737;28;20334;-76
2024/03/04 09:34:59;;;;;;;26.33;12.05;;;9.70;99.90;;;;;;5053011;28;20112;-76
2024/03/04 09:37:24;;;;;;;30.63;13.40;;;9.60;99.90;;;;;;5052873;28;20493;-76
2024/03/04 09:39:50;;;;;;;27.15;12.45;;;9.60;99.90;;;;;;5054323;28;20110;-76
2024/03/04 09:42:17;;;;;;;24.63;11.65;;;9.70;99.90;;;;;;5052279;28;20025;-76
2024/03/04 09:44:43;;;;;;;30.02;12.35;;;9.70;99.90;;;;;;5054035;28;20055;-76
2024/03/04 09:47:09;;;;;;;29.38;13.52;;;9.70;99.90;;;;;;5052980;28;20033;-77
2024/03/04 09:49:38;;;;;;;27.02;11.43;;;9.70;99.90;;;;;;5052335;28;20059;-76
2024/03/04 09:52:04;;;;;;;29.83;13.35;;;9.70;99.90;;;;;;5052898;28;20021;-76
2024/03/04 09:54:32;;;;;;;28.25;12.50;;;9.70;99.90;;;;;;5053364;28;20480;-76
2024/03/04 09:56:58;;;;;;;31.10;12.52;;;9.60;99.90;;;;;;5053899;28;20075;-76
2024/03/04 09:59:24;;;;;;;25.15;12.57;;;9.60;99.90;;;;;;5052014;28;20025;-76
2024/03/04 10:01:51;;;;;;;26.60;11.55;;;9.60;99.90;;;;;;5051852;28;20040;-76
2024/03/04 10:04:18;;;;;;;30.20;12.10;;;9.60;99.90;;;;;;5051106;28;20053;-76
2024/03/04 10:06:44;;;;;;;24.40;11.70;;;9.70;99.90;;;;;;5052482;28;20363;-77
2024/03/04 10:09:12;;;;;;;28.70;12.07;;;9.70;99.90;;;;;;5052164;28;20036;-76
2024/03/04 10:11:39;;;;;;;25.50;11.85;;;9.70;99.90;;;;;;5051708;28;20028;-76
2024/03/04 10:14:05;;;;;;;27.35;11.75;;;9.80;99.90;;;;;;5052939;28;20111;-77
2024/03/04 10:16:31;;;;;;;29.92;12.93;;;9.80;99.90;;;;;;5052011;28;20477;-76
2024/03/04 10:18:59;;;;;;;28.77;12.05;;;9.80;99.90;;;;;;5051760;28;20033;-76
2024/03/04 10:21:27;;;;;;;28.08;12.20;;;9.80;99.90;;;;;;5052785;28;20025;-76
2024/03/04 10:23:52;;;;;;;32.55;13.13;;;9.80;99.90;;;;;;5050617;28;20029;-75
2024/03/04 10:26:18;;;;;;;30.00;12.73;;;9.80;99.90;;;;;;5051712;28;20036;-75
2024/03/04 10:28:45;;;;;;;25.70;11.95;;;9.80;99.90;;;;;;5051590;28;20033;-75
2024/03/04 10:31:15;;;;;;;31.30;12.30;;;9.80;99.90;;;;;;5051544;28;20025;-75
2024/03/04 10:33:41;;;;;;;25.98;12.07;;;9.80;99.90;;;;;;5052949;28;20025;-75
2024/03/04 10:36:16;;;;;;;28.40;12.05;;;9.90;99.90;;;;;;5053132;28;20071;-75
2024/03/04 10:38:43;;;;;;;32.50;12.23;;;9.90;99.90;;;;;;5052847;28;20037;-75
2024/03/04 10:41:25;;;;;;;26.92;11.63;;;9.90;99.90;;;;;;5052699;28;20029;-74
2024/03/04 10:43:54;;;;;;;29.45;12.18;;;9.90;99.90;;;;;;5051561;28;20092;-74
2024/03/04 10:46:20;;;;;;;28.77;12.45;;;9.80;99.90;;;;;;5050627;28;20132;-74
2024/03/04 10:48:47;;;;;;;27.02;12.20;;;9.80;99.90;;;;;;5052704;28;20021;-74
2024/03/04 10:51:16;;;;;;;25.98;12.23;;;9.90;99.90;;;;;;5051279;28;20029;-74
2024/03/04 10:53:42;;;;;;;29.17;12.40;;;9.90;99.90;;;;;;5051098;28;20033;-74
2024/03/04 10:56:12;;;;;;;27.90;13.05;;;9.90;99.90;;;;;;5052278;28;20035;-74
2024/03/04 10:58:43;;;;;;;27.35;11.25;;;10.00;99.90;;;;;;5050505;28;20132;-76
2024/03/04 11:01:13;;;;;;;27.05;11.73;;;9.90;99.90;;;;;;5051235;28;20037;-76
2024/03/04 11:03:43;;;;;;;25.35;11.25;;;9.80;99.90;;;;;;5050719;28;20032;-75
2024/03/04 11:06:11;;;;;;;27.17;12.38;;;9.80;99.90;;;;;;5052328;28;20017;-75
2024/03/04 11:08:40;;;;;;;28.30;10.77;;;9.80;99.90;;;;;;5050353;28;20032;-75
2024/03/04 11:11:29;;;;;;;30.00;11.45;;;9.90;99.90;;;;;;5051967;28;20466;-75
2024/03/04 11:14:03;;;;;;;23.25;10.65;;;9.80;99.90;;;;;;5051836;28;20029;-74
2024/03/04 11:16:51;;;;;;;25.55;10.95;;;9.80;99.90;;;;;;5051757;28;20044;-75
2024/03/04 11:19:22;;;;;;;27.27;11.15;;;9.70;99.90;;;;;;5051738;28;20478;-74
2024/03/04 11:21:49;;;;;;;27.42;11.25;;;9.80;99.90;;;;;;5050873;28;20067;-75
2024/03/04 11:24:16;;;;;;;23.52;10.18;;;9.70;99.90;;;;;;5052276;28;20113;-75
2024/03/04 11:26:43;;;;;;;25.13;10.73;;;9.80;99.90;;;;;;5050801;28;20029;-75
2024/03/04 11:29:10;;;;;;;22.38;10.43;;;9.70;99.90;;;;;;5051400;28;20037;-75
2024/03/04 11:31:35;;;;;;;25.38;9.88;;;9.70;99.90;;;;;;5050413;28;20033;-74
2024/03/04 11:34:09;;;;;;;24.88;10.40;;;9.70;99.90;;;;;;5050738;28;20021;-75
2024/03/04 11:36:39;;;;;;;22.95;10.05;;;9.80;99.90;;;;;;5050301;28;20021;-75
2024/03/04 11:39:16;;;;;;;23.73;10.75;;;9.80;99.90;;;;;;5050666;28;20033;-76
2024/03/04 11:41:50;;;;;;;26.23;11.00;;;9.70;99.90;;;;;;5050725;28;20467;-75
2024/03/04 11:44:29;;;;;;;25.52;10.77;;;9.70;99.90;;;;;;5050826;28;20025;-75
2024/03/04 11:46:55;;;;;;;24.67;10.27;;;9.70;99.90;;;;;;5040982;28;20091;-75
2024/03/04 11:49:24;;;;;;;20.17;9.57;;;9.70;99.90;;;;;;5043470;28;20036;-75
2024/03/04 11:52:08;;;;;;;25.45;11.15;;;9.60;99.90;;;;;;5035135;28;20414;-76
2024/03/04 11:54:36;;;;;;;21.15;10.18;;;9.60;99.90;;;;;;5043372;28;20021;-75
2024/03/04 11:57:04;;;;;;;23.70;9.57;;;9.60;99.90;;;;;;5041281;28;20061;-75
2024/03/04 11:59:31;;;;;;;21.63;9.77;;;9.60;99.90;;;;;;5044418;28;20021;-75
2024/03/04 12:01:56;;;;;;;22.25;9.77;;;9.60;99.90;;;;;;5051807;28;20033;-75
2024/03/04 12:04:25;;;;;;;26.90;10.48;;;9.60;99.90;;;;;;5066576;28;20060;-75
2024/03/04 12:06:54;;;;;;;24.05;9.65;;;9.60;99.90;;;;;;5050626;28;20025;-75
2024/03/04 12:09:25;;;;;;;22.30;9.65;;;9.60;99.90;;;;;;5066122;28;20033;-75
2024/03/04 12:11:55;;;;;;;24.10;10.23;;;9.60;99.90;;;;;;5051667;28;20025;-75
2024/03/04 12:14:21;;;;;;;24.30;9.60;;;9.60;99.90;;;;;;5051167;28;20036;-75
2024/03/04 12:16:46;;;;;;;20.58;8.65;;;9.60;99.90;;;;;;5051477;28;20029;-75
2024/03/04 12:19:12;;;;;;;19.83;9.43;;;9.60;99.90;;;;;;5051322;28;20036;-75
2024/03/04 12:21:38;;;;;;;23.45;9.80;;;9.60;99.90;;;;;;5051034;28;20429;-74
2024/03/04 12:24:04;;;;;;;26.05;10.05;;;9.60;99.90;;;;;;5051505;28;20021;-74
2024/03/04 12:26:29;;;;;;;19.38;8.40;;;9.60;99.90;;;;;;5052802;28;20096;-74
2024/03/04 12:29:04;;;;;;;21.23;8.70;;;9.60;99.90;;;;;;5053785;28;20082;-74
2024/03/04 12:31:31;;;;;;;21.67;9.18;;;9.60;99.90;;;;;;5053426;28;20025;-74
2024/03/04 12:33:57;;;;;;;25.77;10.05;;;9.60;99.90;;;;;;5055229;28;20078;-74
2024/03/04 12:36:24;;;;;;;27.95;9.88;;;9.50;99.90;;;;;;5053414;28;20025;-74
2024/03/04 12:38:53;;;;;;;22.35;9.50;;;9.50;99.90;;;;;;5070605;28;20029;-74